sensor_id;sensor_type;location;lat;lon;timestamp;temperature;humidity
25554;DHT22;13446;50.926;5.332;2023-08-06T00:00:09;16.20;99.90
25554;DHT22;13446;50.926;5.332;2023-08-06T00:02:35;16.20;99.90
25554;DHT22;13446;50.926;5.332;2023-08-06T00:05:00;16.10;99.90
25554;DHT22;13446;50.926;5.332;2023-08-06T00:07:26;16.20;99.90
25554;DHT22;13446;50.926;5.332;2023-08-06T00:09:51;16.20;99.90
25554;DHT22;13446;50.926;5.332;2023-08-06T00:12:18;16.30;99.90
25554;DHT22;13446;50.926;5.332;2023-08-06T00:14:44;16.30;99.90
25554;DHT22;13446;50.926;5.332;2023-08-06T00:17:10;16.50;99.90
25554;DHT22;13446;50.926;5.332;2023-08-06T00:19:35;16.60;99.90
25554;DHT22;13446;50.926;5.332;2023-08-06T00:22:01;16.50;99.90
25554;DHT22;13446;50.926;5.332;2023-08-06T00:24:27;16.60;99.90
25554;DHT22;13446;50.926;5.332;2023-08-06T00:26:53;16.60;99.90
25554;DHT22;13446;50.926;5.332;2023-08-06T00:29:18;16.70;99.90
25554;DHT22;13446;50.926;5.332;2023-08-06T00:31:44;16.70;99.90
25554;DHT22;13446;50.926;5.332;2023-08-06T00:34:10;16.60;99.90
25554;DHT22;13446;50.926;5.332;2023-08-06T00:36:35;16.60;99.90
25554;DHT22;13446;50.926;5.332;2023-08-06T00:39:01;16.70;99.90
25554;DHT22;13446;50.926;5.332;2023-08-06T00:41:26;16.60;99.90
25554;DHT22;13446;50.926;5.332;2023-08-06T00:43:52;16.50;99.90
25554;DHT22;13446;50.926;5.332;2023-08-06T00:46:17;16.50;99.90
25554;DHT22;13446;50.926;5.332;2023-08-06T00:48:43;16.30;99.90
25554;DHT22;13446;50.926;5.332;2023-08-06T00:51:09;16.30;99.90
25554;DHT22;13446;50.926;5.332;2023-08-06T00:53:37;16.30;99.90
25554;DHT22;13446;50.926;5.332;2023-08-06T00:56:03;16.50;99.90
25554;DHT22;13446;50.926;5.332;2023-08-06T00:58:29;16.50;99.90
25554;DHT22;13446;50.926;5.332;2023-08-06T01:00:54;16.50;99.90
25554;DHT22;13446;50.926;5.332;2023-08-06T01:03:20;16.50;99.90
25554;DHT22;13446;50.926;5.332;2023-08-06T01:05:46;16.50;99.90
25554;DHT22;13446;50.926;5.332;2023-08-06T01:08:15;16.50;99.90
25554;DHT22;13446;50.926;5.332;2023-08-06T01:10:49;16.30;99.90
25554;DHT22;13446;50.926;5.332;2023-08-06T01:16:01;16.30;99.90
25554;DHT22;13446;50.926;5.332;2023-08-06T01:18:27;16.40;99.90
25554;DHT22;13446;50.926;5.332;2023-08-06T01:20:53;16.40;99.90
25554;DHT22;13446;50.926;5.332;2023-08-06T01:23:18;16.20;99.90
25554;DHT22;13446;50.926;5.332;2023-08-06T01:26:01;16.30;99.90
25554;DHT22;13446;50.926;5.332;2023-08-06T01:31:05;16.40;99.90
25554;DHT22;13446;50.926;5.332;2023-08-06T01:33:32;16.30;99.90
25554;DHT22;13446;50.926;5.332;2023-08-06T01:35:59;16.20;99.90
25554;DHT22;13446;50.926;5.332;2023-08-06T01:38:26;16.30;99.90
25554;DHT22;13446;50.926;5.332;2023-08-06T01:40:53;16.30;99.90
25554;DHT22;13446;50.926;5.332;2023-08-06T01:43:19;16.20;99.90
25554;DHT22;13446;50.926;5.332;2023-08-06T01:45:44;16.20;99.90
25554;DHT22;13446;50.926;5.332;2023-08-06T01:48:10;16.10;99.90
25554;DHT22;13446;50.926;5.332;2023-08-06T01:50:36;16.10;99.90
25554;DHT22;13446;50.926;5.332;2023-08-06T01:53:01;16.10;99.90
25554;DHT22;13446;50.926;5.332;2023-08-06T01:55:33;16.10;99.90
25554;DHT22;13446;50.926;5.332;2023-08-06T01:58:00;16.20;99.90
25554;DHT22;13446;50.926;5.332;2023-08-06T02:00:26;16.30;99.90
25554;DHT22;13446;50.926;5.332;2023-08-06T02:02:53;16.30;99.90
25554;DHT22;13446;50.926;5.332;2023-08-06T02:05:18;16.20;99.90
25554;DHT22;13446;50.926;5.332;2023-08-06T02:07:44;16.30;99.90
25554;DHT22;13446;50.926;5.332;2023-08-06T02:10:10;16.30;99.90
25554;DHT22;13446;50.926;5.332;2023-08-06T02:12:35;16.30;99.90
25554;DHT22;13446;50.926;5.332;2023-08-06T02:15:01;16.20;99.90
25554;DHT22;13446;50.926;5.332;2023-08-06T02:17:26;16.20;99.90
25554;DHT22;13446;50.926;5.332;2023-08-06T02:20:00;16.20;99.90
25554;DHT22;13446;50.926;5.332;2023-08-06T02:22:26;16.20;99.90
25554;DHT22;13446;50.926;5.332;2023-08-06T02:24:52;16.30;99.90
25554;DHT22;13446;50.926;5.332;2023-08-06T02:27:17;16.30;99.90
25554;DHT22;13446;50.926;5.332;2023-08-06T02:29:43;16.40;99.90
25554;DHT22;13446;50.926;5.332;2023-08-06T02:32:10;16.40;99.90
25554;DHT22;13446;50.926;5.332;2023-08-06T02:34:35;16.40;99.90
25554;DHT22;13446;50.926;5.332;2023-08-06T02:37:01;16.30;99.90
25554;DHT22;13446;50.926;5.332;2023-08-06T02:39:26;16.30;99.90
25554;DHT22;13446;50.926;5.332;2023-08-06T02:41:52;16.30;99.90
25554;DHT22;13446;50.926;5.332;2023-08-06T02:44:17;16.30;99.90
25554;DHT22;13446;50.926;5.332;2023-08-06T02:46:44;16.30;99.90
25554;DHT22;13446;50.926;5.332;2023-08-06T02:49:09;16.40;99.90
25554;DHT22;13446;50.926;5.332;2023-08-06T02:51:35;16.40;99.90
25554;DHT22;13446;50.926;5.332;2023-08-06T02:54:00;16.60;99.90
25554;DHT22;13446;50.926;5.332;2023-08-06T02:56:26;16.50;99.90
25554;DHT22;13446;50.926;5.332;2023-08-06T02:58:51;16.50;99.90
25554;DHT22;13446;50.926;5.332;2023-08-06T03:01:17;16.50;99.90
25554;DHT22;13446;50.926;5.332;2023-08-06T03:03:43;16.30;99.90
25554;DHT22;13446;50.926;5.332;2023-08-06T03:06:08;16.30;99.90
25554;DHT22;13446;50.926;5.332;2023-08-06T03:08:34;16.30;99.90
25554;DHT22;13446;50.926;5.332;2023-08-06T03:10:59;16.30;99.90
25554;DHT22;13446;50.926;5.332;2023-08-06T03:13:25;16.30;99.90
25554;DHT22;13446;50.926;5.332;2023-08-06T03:15:57;16.30;99.90
25554;DHT22;13446;50.926;5.332;2023-08-06T03:18:23;16.30;99.90
25554;DHT22;13446;50.926;5.332;2023-08-06T03:20:49;16.50;99.90
25554;DHT22;13446;50.926;5.332;2023-08-06T03:23:14;16.40;99.90
25554;DHT22;13446;50.926;5.332;2023-08-06T03:25:41;16.40;99.90
25554;DHT22;13446;50.926;5.332;2023-08-06T03:28:07;16.50;99.90
25554;DHT22;13446;50.926;5.332;2023-08-06T03:30:32;16.60;99.90
25554;DHT22;13446;50.926;5.332;2023-08-06T03:32:58;16.60;99.90
25554;DHT22;13446;50.926;5.332;2023-08-06T03:35:23;16.60;99.90
25554;DHT22;13446;50.926;5.332;2023-08-06T03:37:49;16.60;99.90
25554;DHT22;13446;50.926;5.332;2023-08-06T03:40:15;16.60;99.90
25554;DHT22;13446;50.926;5.332;2023-08-06T03:42:41;16.70;99.90
25554;DHT22;13446;50.926;5.332;2023-08-06T03:45:06;16.70;99.90
25554;DHT22;13446;50.926;5.332;2023-08-06T03:47:32;16.70;99.90
25554;DHT22;13446;50.926;5.332;2023-08-06T03:49:58;16.70;99.90
25554;DHT22;13446;50.926;5.332;2023-08-06T03:52:23;16.70;99.90
25554;DHT22;13446;50.926;5.332;2023-08-06T03:54:49;16.70;99.90
25554;DHT22;13446;50.926;5.332;2023-08-06T03:57:14;16.70;99.90
25554;DHT22;13446;50.926;5.332;2023-08-06T03:59:40;16.70;99.90
25554;DHT22;13446;50.926;5.332;2023-08-06T04:02:05;16.60;99.90
25554;DHT22;13446;50.926;5.332;2023-08-06T04:04:31;16.50;99.90
25554;DHT22;13446;50.926;5.332;2023-08-06T04:06:57;16.50;99.90
25554;DHT22;13446;50.926;5.332;2023-08-06T04:09:22;16.60;99.90
25554;DHT22;13446;50.926;5.332;2023-08-06T04:11:48;16.60;99.90
25554;DHT22;13446;50.926;5.332;2023-08-06T04:14:13;16.70;99.90
25554;DHT22;13446;50.926;5.332;2023-08-06T04:16:39;16.70;99.90
25554;DHT22;13446;50.926;5.332;2023-08-06T04:19:04;16.70;99.90
25554;DHT22;13446;50.926;5.332;2023-08-06T04:21:30;16.70;99.90
25554;DHT22;13446;50.926;5.332;2023-08-06T04:23:56;16.70;99.90
25554;DHT22;13446;50.926;5.332;2023-08-06T04:26:21;16.60;99.90
25554;DHT22;13446;50.926;5.332;2023-08-06T04:28:47;16.60;99.90
25554;DHT22;13446;50.926;5.332;2023-08-06T04:31:14;16.70;99.90
25554;DHT22;13446;50.926;5.332;2023-08-06T04:33:39;16.70;99.90
25554;DHT22;13446;50.926;5.332;2023-08-06T04:36:05;16.70;99.90
25554;DHT22;13446;50.926;5.332;2023-08-06T04:38:31;16.70;99.90
25554;DHT22;13446;50.926;5.332;2023-08-06T04:40:57;16.70;99.90
25554;DHT22;13446;50.926;5.332;2023-08-06T04:43:23;16.80;99.90
25554;DHT22;13446;50.926;5.332;2023-08-06T04:45:50;16.80;99.90
25554;DHT22;13446;50.926;5.332;2023-08-06T04:48:17;16.90;99.90
25554;DHT22;13446;50.926;5.332;2023-08-06T04:50:43;16.70;99.90
25554;DHT22;13446;50.926;5.332;2023-08-06T04:53:09;16.80;99.90
25554;DHT22;13446;50.926;5.332;2023-08-06T04:55:34;16.80;99.90
25554;DHT22;13446;50.926;5.332;2023-08-06T04:58:00;16.80;99.90
25554;DHT22;13446;50.926;5.332;2023-08-06T05:00:26;16.80;99.90
25554;DHT22;13446;50.926;5.332;2023-08-06T05:02:51;16.90;99.90
25554;DHT22;13446;50.926;5.332;2023-08-06T05:05:17;16.90;99.90
25554;DHT22;13446;50.926;5.332;2023-08-06T05:07:42;16.90;99.90
25554;DHT22;13446;50.926;5.332;2023-08-06T05:10:08;16.90;99.90
25554;DHT22;13446;50.926;5.332;2023-08-06T05:12:34;16.90;99.90
25554;DHT22;13446;50.926;5.332;2023-08-06T05:14:59;16.90;99.90
25554;DHT22;13446;50.926;5.332;2023-08-06T05:17:25;16.90;99.90
25554;DHT22;13446;50.926;5.332;2023-08-06T05:19:51;16.90;99.90
25554;DHT22;13446;50.926;5.332;2023-08-06T05:22:16;16.90;99.90
25554;DHT22;13446;50.926;5.332;2023-08-06T05:24:45;16.90;99.90
25554;DHT22;13446;50.926;5.332;2023-08-06T05:27:16;16.80;99.90
25554;DHT22;13446;50.926;5.332;2023-08-06T05:29:44;16.80;99.90
25554;DHT22;13446;50.926;5.332;2023-08-06T05:32:16;16.90;99.90
25554;DHT22;13446;50.926;5.332;2023-08-06T05:34:41;16.90;99.90
25554;DHT22;13446;50.926;5.332;2023-08-06T05:37:07;16.80;99.90
25554;DHT22;13446;50.926;5.332;2023-08-06T05:39:33;16.80;99.90
25554;DHT22;13446;50.926;5.332;2023-08-06T05:41:58;16.90;99.90
25554;DHT22;13446;50.926;5.332;2023-08-06T05:44:24;16.90;99.90
25554;DHT22;13446;50.926;5.332;2023-08-06T05:46:49;16.80;99.90
25554;DHT22;13446;50.926;5.332;2023-08-06T05:49:15;16.80;99.90
25554;DHT22;13446;50.926;5.332;2023-08-06T05:51:41;16.80;99.90
25554;DHT22;13446;50.926;5.332;2023-08-06T05:54:07;16.70;99.90
25554;DHT22;13446;50.926;5.332;2023-08-06T05:56:32;16.70;99.90
25554;DHT22;13446;50.926;5.332;2023-08-06T05:58:58;16.70;99.90
25554;DHT22;13446;50.926;5.332;2023-08-06T06:01:23;16.60;99.90
25554;DHT22;13446;50.926;5.332;2023-08-06T06:03:49;16.50;99.90
25554;DHT22;13446;50.926;5.332;2023-08-06T06:06:14;16.60;99.90
25554;DHT22;13446;50.926;5.332;2023-08-06T06:08:41;16.50;99.90
25554;DHT22;13446;50.926;5.332;2023-08-06T06:11:06;16.40;99.90
25554;DHT22;13446;50.926;5.332;2023-08-06T06:13:32;16.50;99.90
25554;DHT22;13446;50.926;5.332;2023-08-06T06:15:58;16.60;99.90
25554;DHT22;13446;50.926;5.332;2023-08-06T06:18:23;16.50;99.90
25554;DHT22;13446;50.926;5.332;2023-08-06T06:20:49;16.50;99.90
25554;DHT22;13446;50.926;5.332;2023-08-06T06:23:14;16.30;99.90
25554;DHT22;13446;50.926;5.332;2023-08-06T06:25:43;16.20;99.90
25554;DHT22;13446;50.926;5.332;2023-08-06T06:28:09;16.20;99.90
25554;DHT22;13446;50.926;5.332;2023-08-06T06:30:34;16.10;99.90
25554;DHT22;13446;50.926;5.332;2023-08-06T06:33:00;16.00;99.90
25554;DHT22;13446;50.926;5.332;2023-08-06T06:35:25;15.90;99.90
25554;DHT22;13446;50.926;5.332;2023-08-06T06:37:51;16.00;99.90
25554;DHT22;13446;50.926;5.332;2023-08-06T06:40:17;16.00;99.90
25554;DHT22;13446;50.926;5.332;2023-08-06T06:42:42;16.00;99.90
25554;DHT22;13446;50.926;5.332;2023-08-06T06:45:08;16.00;99.90
25554;DHT22;13446;50.926;5.332;2023-08-06T06:47:34;16.00;99.90
25554;DHT22;13446;50.926;5.332;2023-08-06T06:49:59;15.90;99.90
25554;DHT22;13446;50.926;5.332;2023-08-06T06:52:25;15.90;99.90
25554;DHT22;13446;50.926;5.332;2023-08-06T06:54:50;15.80;99.90
25554;DHT22;13446;50.926;5.332;2023-08-06T06:57:16;15.70;99.90
25554;DHT22;13446;50.926;5.332;2023-08-06T06:59:41;15.60;99.90
25554;DHT22;13446;50.926;5.332;2023-08-06T07:02:07;15.60;99.90
25554;DHT22;13446;50.926;5.332;2023-08-06T07:04:32;15.70;99.90
25554;DHT22;13446;50.926;5.332;2023-08-06T07:06:58;15.70;99.90
25554;DHT22;13446;50.926;5.332;2023-08-06T07:09:23;15.80;99.90
25554;DHT22;13446;50.926;5.332;2023-08-06T07:11:49;15.80;99.90
25554;DHT22;13446;50.926;5.332;2023-08-06T07:14:14;15.80;99.90
25554;DHT22;13446;50.926;5.332;2023-08-06T07:16:40;15.90;99.90
25554;DHT22;13446;50.926;5.332;2023-08-06T07:19:06;15.90;99.90
25554;DHT22;13446;50.926;5.332;2023-08-06T07:21:31;16.00;99.90
25554;DHT22;13446;50.926;5.332;2023-08-06T07:23:57;15.90;99.90
25554;DHT22;13446;50.926;5.332;2023-08-06T07:26:24;15.80;99.90
25554;DHT22;13446;50.926;5.332;2023-08-06T07:28:50;15.80;99.90
25554;DHT22;13446;50.926;5.332;2023-08-06T07:31:15;15.90;99.90
25554;DHT22;13446;50.926;5.332;2023-08-06T07:33:41;16.00;99.90
25554;DHT22;13446;50.926;5.332;2023-08-06T07:36:07;16.10;99.90
25554;DHT22;13446;50.926;5.332;2023-08-06T07:38:33;16.30;99.90
25554;DHT22;13446;50.926;5.332;2023-08-06T07:41:01;16.20;99.90
25554;DHT22;13446;50.926;5.332;2023-08-06T07:43:26;16.20;99.90
25554;DHT22;13446;50.926;5.332;2023-08-06T07:45:52;16.20;99.90
25554;DHT22;13446;50.926;5.332;2023-08-06T07:48:17;16.20;99.90
25554;DHT22;13446;50.926;5.332;2023-08-06T07:50:43;16.20;99.90
25554;DHT22;13446;50.926;5.332;2023-08-06T07:53:15;16.20;99.90
25554;DHT22;13446;50.926;5.332;2023-08-06T07:55:40;16.30;99.90
25554;DHT22;13446;50.926;5.332;2023-08-06T07:58:06;16.50;99.90
25554;DHT22;13446;50.926;5.332;2023-08-06T08:00:31;16.50;99.90
25554;DHT22;13446;50.926;5.332;2023-08-06T08:02:58;16.60;99.90
25554;DHT22;13446;50.926;5.332;2023-08-06T08:05:24;16.70;99.90
25554;DHT22;13446;50.926;5.332;2023-08-06T08:07:49;16.90;99.90
25554;DHT22;13446;50.926;5.332;2023-08-06T08:10:15;16.90;99.90
25554;DHT22;13446;50.926;5.332;2023-08-06T08:12:40;17.00;99.90
25554;DHT22;13446;50.926;5.332;2023-08-06T08:15:06;16.90;99.90
25554;DHT22;13446;50.926;5.332;2023-08-06T08:17:32;17.00;99.90
25554;DHT22;13446;50.926;5.332;2023-08-06T08:19:57;16.90;99.90
25554;DHT22;13446;50.926;5.332;2023-08-06T08:22:23;17.00;99.90
25554;DHT22;13446;50.926;5.332;2023-08-06T08:24:48;17.10;99.90
25554;DHT22;13446;50.926;5.332;2023-08-06T08:27:14;17.00;99.90
25554;DHT22;13446;50.926;5.332;2023-08-06T08:29:40;17.00;99.90
25554;DHT22;13446;50.926;5.332;2023-08-06T08:32:05;17.10;99.90
25554;DHT22;13446;50.926;5.332;2023-08-06T08:34:31;17.10;99.90
25554;DHT22;13446;50.926;5.332;2023-08-06T08:36:58;17.10;99.90
25554;DHT22;13446;50.926;5.332;2023-08-06T08:39:26;17.00;99.90
25554;DHT22;13446;50.926;5.332;2023-08-06T08:41:52;16.90;99.90
25554;DHT22;13446;50.926;5.332;2023-08-06T08:44:17;16.80;99.90
25554;DHT22;13446;50.926;5.332;2023-08-06T08:46:43;16.80;99.90
25554;DHT22;13446;50.926;5.332;2023-08-06T08:49:09;16.80;99.90
25554;DHT22;13446;50.926;5.332;2023-08-06T08:51:36;16.90;99.90
25554;DHT22;13446;50.926;5.332;2023-08-06T08:54:02;17.00;99.90
25554;DHT22;13446;50.926;5.332;2023-08-06T08:56:28;16.90;99.90
25554;DHT22;13446;50.926;5.332;2023-08-06T08:58:54;16.80;99.90
25554;DHT22;13446;50.926;5.332;2023-08-06T09:01:21;16.80;99.90
25554;DHT22;13446;50.926;5.332;2023-08-06T09:03:47;16.70;99.90
25554;DHT22;13446;50.926;5.332;2023-08-06T09:06:13;16.60;99.90
25554;DHT22;13446;50.926;5.332;2023-08-06T09:08:41;16.70;99.90
25554;DHT22;13446;50.926;5.332;2023-08-06T09:11:08;16.70;99.90
25554;DHT22;13446;50.926;5.332;2023-08-06T09:13:35;16.80;99.90
25554;DHT22;13446;50.926;5.332;2023-08-06T09:16:03;17.00;99.90
25554;DHT22;13446;50.926;5.332;2023-08-06T09:18:29;17.00;99.90
25554;DHT22;13446;50.926;5.332;2023-08-06T09:20:55;17.10;99.90
25554;DHT22;13446;50.926;5.332;2023-08-06T09:23:26;17.20;99.90
25554;DHT22;13446;50.926;5.332;2023-08-06T09:25:53;17.30;99.90
25554;DHT22;13446;50.926;5.332;2023-08-06T09:28:18;17.50;99.90
25554;DHT22;13446;50.926;5.332;2023-08-06T09:30:44;17.50;99.90
25554;DHT22;13446;50.926;5.332;2023-08-06T09:33:14;17.70;99.90
25554;DHT22;13446;50.926;5.332;2023-08-06T09:35:42;17.70;99.90
25554;DHT22;13446;50.926;5.332;2023-08-06T09:38:08;17.50;99.90
25554;DHT22;13446;50.926;5.332;2023-08-06T09:40:35;17.50;99.90
25554;DHT22;13446;50.926;5.332;2023-08-06T09:43:02;17.60;99.90
25554;DHT22;13446;50.926;5.332;2023-08-06T09:45:37;17.60;99.90
25554;DHT22;13446;50.926;5.332;2023-08-06T09:48:03;17.70;99.90
25554;DHT22;13446;50.926;5.332;2023-08-06T09:50:30;17.60;99.90
25554;DHT22;13446;50.926;5.332;2023-08-06T09:52:56;17.60;99.90
25554;DHT22;13446;50.926;5.332;2023-08-06T09:55:22;17.70;99.90
25554;DHT22;13446;50.926;5.332;2023-08-06T09:57:48;17.70;99.90
25554;DHT22;13446;50.926;5.332;2023-08-06T10:00:14;17.40;99.90
25554;DHT22;13446;50.926;5.332;2023-08-06T10:02:41;17.50;99.90
25554;DHT22;13446;50.926;5.332;2023-08-06T10:05:07;17.70;99.90
25554;DHT22;13446;50.926;5.332;2023-08-06T10:07:33;17.60;99.90
25554;DHT22;13446;50.926;5.332;2023-08-06T10:09:59;17.70;99.90
25554;DHT22;13446;50.926;5.332;2023-08-06T10:12:25;17.80;99.90
25554;DHT22;13446;50.926;5.332;2023-08-06T10:14:52;17.80;99.90
25554;DHT22;13446;50.926;5.332;2023-08-06T10:17:20;17.80;99.90
25554;DHT22;13446;50.926;5.332;2023-08-06T10:19:47;17.60;99.90
25554;DHT22;13446;50.926;5.332;2023-08-06T10:22:19;17.50;99.90
25554;DHT22;13446;50.926;5.332;2023-08-06T10:24:54;17.60;99.90
25554;DHT22;13446;50.926;5.332;2023-08-06T10:27:21;17.80;99.90
25554;DHT22;13446;50.926;5.332;2023-08-06T10:29:47;17.80;99.90
25554;DHT22;13446;50.926;5.332;2023-08-06T10:32:12;17.70;99.90
25554;DHT22;13446;50.926;5.332;2023-08-06T10:34:52;17.60;99.90
25554;DHT22;13446;50.926;5.332;2023-08-06T10:37:18;17.50;99.90
25554;DHT22;13446;50.926;5.332;2023-08-06T10:39:53;17.40;99.90
25554;DHT22;13446;50.926;5.332;2023-08-06T10:42:19;17.20;99.90
25554;DHT22;13446;50.926;5.332;2023-08-06T10:47:30;17.30;99.90
25554;DHT22;13446;50.926;5.332;2023-08-06T10:49:55;17.30;99.90
25554;DHT22;13446;50.926;5.332;2023-08-06T10:52:22;17.30;99.90
25554;DHT22;13446;50.926;5.332;2023-08-06T10:54:48;17.20;99.90
25554;DHT22;13446;50.926;5.332;2023-08-06T10:57:13;17.20;99.90
25554;DHT22;13446;50.926;5.332;2023-08-06T10:59:39;17.20;99.90
25554;DHT22;13446;50.926;5.332;2023-08-06T11:02:05;17.30;99.90
25554;DHT22;13446;50.926;5.332;2023-08-06T11:04:30;17.30;99.90
25554;DHT22;13446;50.926;5.332;2023-08-06T11:06:56;17.30;99.90
25554;DHT22;13446;50.926;5.332;2023-08-06T11:09:22;17.30;99.90
25554;DHT22;13446;50.926;5.332;2023-08-06T11:11:47;17.20;99.90
25554;DHT22;13446;50.926;5.332;2023-08-06T11:14:15;17.10;99.90
25554;DHT22;13446;50.926;5.332;2023-08-06T11:16:41;17.10;99.90
25554;DHT22;13446;50.926;5.332;2023-08-06T11:19:07;17.20;99.90
25554;DHT22;13446;50.926;5.332;2023-08-06T11:21:33;17.30;99.90
25554;DHT22;13446;50.926;5.332;2023-08-06T11:23:58;17.20;99.90
25554;DHT22;13446;50.926;5.332;2023-08-06T11:26:25;17.20;99.90
25554;DHT22;13446;50.926;5.332;2023-08-06T11:28:50;17.20;99.90
25554;DHT22;13446;50.926;5.332;2023-08-06T11:31:22;17.30;99.90
25554;DHT22;13446;50.926;5.332;2023-08-06T11:33:51;17.20;99.90
25554;DHT22;13446;50.926;5.332;2023-08-06T11:36:16;17.20;99.90
25554;DHT22;13446;50.926;5.332;2023-08-06T11:38:53;17.20;99.90
25554;DHT22;13446;50.926;5.332;2023-08-06T11:41:19;17.10;99.90
25554;DHT22;13446;50.926;5.332;2023-08-06T11:43:45;17.10;99.90
25554;DHT22;13446;50.926;5.332;2023-08-06T11:46:11;17.30;99.90
25554;DHT22;13446;50.926;5.332;2023-08-06T11:48:52;17.30;99.90
25554;DHT22;13446;50.926;5.332;2023-08-06T11:51:18;17.60;99.90
25554;DHT22;13446;50.926;5.332;2023-08-06T11:53:48;17.70;99.90
25554;DHT22;13446;50.926;5.332;2023-08-06T11:56:15;18.10;99.90
25554;DHT22;13446;50.926;5.332;2023-08-06T11:58:42;18.10;99.90
25554;DHT22;13446;50.926;5.332;2023-08-06T12:01:07;18.20;99.90
25554;DHT22;13446;50.926;5.332;2023-08-06T12:03:38;18.30;99.90
25554;DHT22;13446;50.926;5.332;2023-08-06T12:06:04;18.30;99.90
25554;DHT22;13446;50.926;5.332;2023-08-06T12:08:29;18.20;99.90
25554;DHT22;13446;50.926;5.332;2023-08-06T12:10:55;18.00;99.90
25554;DHT22;13446;50.926;5.332;2023-08-06T12:13:20;18.00;99.90
25554;DHT22;13446;50.926;5.332;2023-08-06T12:15:46;18.00;99.90
25554;DHT22;13446;50.926;5.332;2023-08-06T12:18:11;18.00;99.90
25554;DHT22;13446;50.926;5.332;2023-08-06T12:20:37;17.90;99.90
25554;DHT22;13446;50.926;5.332;2023-08-06T12:23:04;17.90;99.90
25554;DHT22;13446;50.926;5.332;2023-08-06T12:25:52;17.80;99.90
25554;DHT22;13446;50.926;5.332;2023-08-06T12:28:17;17.80;99.90
25554;DHT22;13446;50.926;5.332;2023-08-06T12:30:43;17.60;99.90
25554;DHT22;13446;50.926;5.332;2023-08-06T12:33:10;17.60;99.90
25554;DHT22;13446;50.926;5.332;2023-08-06T12:35:36;17.70;99.90
25554;DHT22;13446;50.926;5.332;2023-08-06T12:38:02;17.80;99.90
25554;DHT22;13446;50.926;5.332;2023-08-06T12:40:28;17.90;99.90
25554;DHT22;13446;50.926;5.332;2023-08-06T12:42:53;17.80;99.90
25554;DHT22;13446;50.926;5.332;2023-08-06T12:45:19;17.80;99.90
25554;DHT22;13446;50.926;5.332;2023-08-06T12:47:46;17.70;99.90
25554;DHT22;13446;50.926;5.332;2023-08-06T12:50:12;17.80;99.90
25554;DHT22;13446;50.926;5.332;2023-08-06T12:52:38;17.90;99.90
25554;DHT22;13446;50.926;5.332;2023-08-06T12:55:03;18.10;99.90
25554;DHT22;13446;50.926;5.332;2023-08-06T12:57:29;18.20;99.90
25554;DHT22;13446;50.926;5.332;2023-08-06T12:59:55;18.00;99.90
25554;DHT22;13446;50.926;5.332;2023-08-06T13:02:20;17.90;99.90
25554;DHT22;13446;50.926;5.332;2023-08-06T13:04:46;17.80;99.90
25554;DHT22;13446;50.926;5.332;2023-08-06T13:07:11;17.90;99.90
25554;DHT22;13446;50.926;5.332;2023-08-06T13:09:37;18.00;99.90
25554;DHT22;13446;50.926;5.332;2023-08-06T13:12:02;17.90;99.90
25554;DHT22;13446;50.926;5.332;2023-08-06T13:14:31;17.80;99.90
25554;DHT22;13446;50.926;5.332;2023-08-06T13:16:56;17.80;99.90
25554;DHT22;13446;50.926;5.332;2023-08-06T13:19:22;17.80;99.90
25554;DHT22;13446;50.926;5.332;2023-08-06T13:24:15;17.50;99.90
25554;DHT22;13446;50.926;5.332;2023-08-06T13:26:40;17.50;99.90
25554;DHT22;13446;50.926;5.332;2023-08-06T13:29:06;17.50;99.90
25554;DHT22;13446;50.926;5.332;2023-08-06T13:31:36;17.40;99.90
25554;DHT22;13446;50.926;5.332;2023-08-06T13:34:02;17.20;99.90
25554;DHT22;13446;50.926;5.332;2023-08-06T13:36:27;17.20;99.90
25554;DHT22;13446;50.926;5.332;2023-08-06T13:38:53;17.20;99.90
25554;DHT22;13446;50.926;5.332;2023-08-06T13:41:18;17.20;99.90
25554;DHT22;13446;50.926;5.332;2023-08-06T13:43:44;17.30;99.90
25554;DHT22;13446;50.926;5.332;2023-08-06T13:46:10;17.20;99.90
25554;DHT22;13446;50.926;5.332;2023-08-06T13:48:41;17.10;99.90
25554;DHT22;13446;50.926;5.332;2023-08-06T13:51:07;17.00;99.90
25554;DHT22;13446;50.926;5.332;2023-08-06T13:53:32;16.90;99.90
25554;DHT22;13446;50.926;5.332;2023-08-06T13:55:58;16.90;99.90
25554;DHT22;13446;50.926;5.332;2023-08-06T13:58:23;17.00;99.90
25554;DHT22;13446;50.926;5.332;2023-08-06T14:00:49;17.00;99.90
25554;DHT22;13446;50.926;5.332;2023-08-06T14:03:15;17.00;99.90
25554;DHT22;13446;50.926;5.332;2023-08-06T14:05:41;16.90;99.90
25554;DHT22;13446;50.926;5.332;2023-08-06T14:08:06;16.90;99.90
25554;DHT22;13446;50.926;5.332;2023-08-06T14:10:32;16.80;99.90
25554;DHT22;13446;50.926;5.332;2023-08-06T14:12:58;16.80;99.90
25554;DHT22;13446;50.926;5.332;2023-08-06T14:15:23;16.80;99.90
25554;DHT22;13446;50.926;5.332;2023-08-06T14:17:49;16.80;99.90
25554;DHT22;13446;50.926;5.332;2023-08-06T14:20:14;16.80;99.90
25554;DHT22;13446;50.926;5.332;2023-08-06T14:22:40;16.80;99.90
25554;DHT22;13446;50.926;5.332;2023-08-06T14:25:05;17.00;99.90
25554;DHT22;13446;50.926;5.332;2023-08-06T14:27:32;17.10;99.90
25554;DHT22;13446;50.926;5.332;2023-08-06T14:29:57;17.10;99.90
25554;DHT22;13446;50.926;5.332;2023-08-06T14:32:23;17.30;99.90
25554;DHT22;13446;50.926;5.332;2023-08-06T14:34:48;17.40;99.90
25554;DHT22;13446;50.926;5.332;2023-08-06T14:37:14;17.20;99.90
25554;DHT22;13446;50.926;5.332;2023-08-06T14:39:40;17.30;99.90
25554;DHT22;13446;50.926;5.332;2023-08-06T14:42:14;17.30;99.90
25554;DHT22;13446;50.926;5.332;2023-08-06T14:44:39;17.30;99.90
25554;DHT22;13446;50.926;5.332;2023-08-06T14:47:06;17.30;99.90
25554;DHT22;13446;50.926;5.332;2023-08-06T14:49:32;17.20;99.90
25554;DHT22;13446;50.926;5.332;2023-08-06T14:51:57;17.10;99.90
25554;DHT22;13446;50.926;5.332;2023-08-06T14:54:25;17.20;99.90
25554;DHT22;13446;50.926;5.332;2023-08-06T14:56:51;17.10;99.90
25554;DHT22;13446;50.926;5.332;2023-08-06T14:59:17;17.10;99.90
25554;DHT22;13446;50.926;5.332;2023-08-06T15:01:43;17.00;99.90
25554;DHT22;13446;50.926;5.332;2023-08-06T15:04:08;16.80;99.90
25554;DHT22;13446;50.926;5.332;2023-08-06T15:06:34;16.70;99.90
25554;DHT22;13446;50.926;5.332;2023-08-06T15:08:59;16.60;99.90
25554;DHT22;13446;50.926;5.332;2023-08-06T15:11:26;16.70;99.90
25554;DHT22;13446;50.926;5.332;2023-08-06T15:13:51;16.70;99.90
25554;DHT22;13446;50.926;5.332;2023-08-06T15:16:17;16.50;99.90
25554;DHT22;13446;50.926;5.332;2023-08-06T15:18:43;16.40;99.90
25554;DHT22;13446;50.926;5.332;2023-08-06T15:21:09;16.40;99.90
25554;DHT22;13446;50.926;5.332;2023-08-06T15:23:35;16.40;99.90
25554;DHT22;13446;50.926;5.332;2023-08-06T15:26:01;16.30;99.90
25554;DHT22;13446;50.926;5.332;2023-08-06T15:28:27;16.30;99.90
25554;DHT22;13446;50.926;5.332;2023-08-06T15:30:52;16.40;99.90
25554;DHT22;13446;50.926;5.332;2023-08-06T15:33:19;16.50;99.90